Sto Camellia — D7LH — position and weather

sailwx.info

Track history (hours):
 
Tides and Currents Weather Stations Pressure Air Temp Water Temp Dewpoint Dewpoint Depression Visibility Wind Speed Wind Dir Waves Ship Positions

Sto Camellia

Last reported at 2017-Dec-10 11:05 UTC. Time now 2017-Dec-16 01:24 UTC.
Position N 21°45' E 119°54'.

Length 121 m; draft 8 m.

Type: Ship (hazmat cat C). MMSI: 440036000.

Date/timePositionNaut miles runAvg speedWind from/ knotsBaromVisibWave heightAir tempDewpointWater temp
2017-Dec-10 11:05N 21°45' E 119°54'3312.8
2017-Dec-10 08:29N 22°19' E 119°53'712.5
2017-Dec-10 07:57N 22°25' E 119°53'812.0
2017-Dec-10 07:16N 22°34' E 119°52'412.3
2017-Dec-10 06:55N 22°38' E 119°52'512.2
2017-Dec-10 06:30N 22°43' E 119°52'612.1
2017-Dec-10 06:00N 22°49' E 119°52'611.9
2017-Dec-10 05:29N 22°55' E 119°51'511.2
2017-Dec-10 05:00N 23°01' E 119°51'611.4
2017-Dec-10 04:27N 23°07' E 119°52'511.4
2017-Dec-10 04:00N 23°12' E 119°52'1311.8
2017-Dec-10 02:52N 23°25' E 119°53'1012.3
2017-Dec-10 02:02N 23°35' E 119°54'112.7
2017-Dec-10 01:56N 23°37' E 119°54'112 4.7
2017-Dec-09 01:55N 25°15' E 120°54'614.0
2017-Dec-09 01:30N 25°20' E 120°57'713.6
2017-Dec-09 01:00N 25°26' E 121°00'  
2017-Nov-30 12:49N 31°01' E 122°20'513.2
2017-Nov-30 12:27N 31°02' E 122°14'612.2
2017-Nov-30 11:58N 31°03' E 122°08'4 8.7
2017-Nov-30 11:30N 31°04' E 122°03'  
Track history (hours):
 
Tides and Currents Weather Stations Pressure Air Temp Water Temp Dewpoint Dewpoint Depression Visibility Wind Speed Wind Dir Waves Ship Positions

Sto Camellia

Last reported at 2017-Dec-10 11:05 UTC. Time now 2017-Dec-16 01:24 UTC.
Position N 21°45' E 119°54'.

Length 121 m; draft 8 m.

Type: Ship (hazmat cat C). MMSI: 440036000.

Date/timePositionNaut miles runAvg speedWind from/ knotsBaromVisibWave heightAir tempDewpointWater temp
2017-Dec-10 11:05N 21°45' E 119°54'3312.8
2017-Dec-10 08:29N 22°19' E 119°53'712.5
2017-Dec-10 07:57N 22°25' E 119°53'812.0
2017-Dec-10 07:16N 22°34' E 119°52'412.3
2017-Dec-10 06:55N 22°38' E 119°52'512.2
2017-Dec-10 06:30N 22°43' E 119°52'612.1
2017-Dec-10 06:00N 22°49' E 119°52'611.9
2017-Dec-10 05:29N 22°55' E 119°51'511.2
2017-Dec-10 05:00N 23°01' E 119°51'611.4
2017-Dec-10 04:27N 23°07' E 119°52'511.4
2017-Dec-10 04:00N 23°12' E 119°52'1311.8
2017-Dec-10 02:52N 23°25' E 119°53'1012.3
2017-Dec-10 02:02N 23°35' E 119°54'112.7
2017-Dec-10 01:56N 23°37' E 119°54'112 4.7
2017-Dec-09 01:55N 25°15' E 120°54'614.0
2017-Dec-09 01:30N 25°20' E 120°57'713.6
2017-Dec-09 01:00N 25°26' E 121°00'  
2017-Nov-30 12:49N 31°01' E 122°20'513.2
2017-Nov-30 12:27N 31°02' E 122°14'612.2
2017-Nov-30 11:58N 31°03' E 122°08'4 8.7
2017-Nov-30 11:30N 31°04' E 122°03'  

Dump ship's entire track history